^^
Saratoga-Weather Station Historical Data
Daily Summary for May 18, 2020 Units:  Metric    English   Both
Daily Weekly Monthly Yearly Custom
  High: Low: Average:
Temperature: 8.2 °C 3.7 °C 5.3 °C
Dew Point: 7.3 °C 3.1 °C 4.6 °C
Humidity: 97% 93% 95%
Wind Speed: 1.4km/h 0km/h 0.1km/h
Wind Gust: 4.8km/h - -
Wind- - South
Pressure: 1023.7 hPa 1023.4 hPa -
Precipitation: 0.0 mm    
Historical Graphs
 
 
Tabular Data for May 18, 2020
Time Temperature Dew Point Pressure Wind Wind Speed Wind Gust Humidity Rainfall Rate (Hourly) solar
00:02 8.2 °C 7.3 °C 1023.7 hPa Calm   1.6 km/h 94% 0.0 mm 0 W/m2
00:07 8.1 °C 7.2 °C 1023.7 hPa Calm   3.2 km/h 94% 0.0 mm 0 W/m2
00:12 8.1 °C 7 °C 1023.7 hPa Calm     93% 0.0 mm 0 W/m2
00:17 8 °C 6.9 °C 1023.7 hPa Calm     93% 0.0 mm 0 W/m2
00:22 7.9 °C 6.8 °C 1023.7 hPa Calm   3.2 km/h 93% 0.0 mm 0 W/m2
00:27 7.8 °C 6.7 °C 1023.7 hPa Calm   3.2 km/h 93% 0.0 mm 0 W/m2
00:47 7.5 °C 6.6 °C 1023.7 hPa Calm     94% 0.0 mm 0 W/m2
00:52 7.3 °C 6.4 °C 1023.7 hPa Calm   3.2 km/h 94% 0.0 mm 0 W/m2
00:57 7.3 °C 6.4 °C 1023.7 hPa Calm   4.8 km/h 94% 0.0 mm 0 W/m2
01:02 7.2 °C 6.3 °C 1023.7 hPa Calm     94% 0.0 mm 0 W/m2
01:07 7.2 °C 6.3 °C 1023.7 hPa WNW 1.4 km/h 4.8 km/h 94% 0.0 mm 0 W/m2
01:12 7.2 °C 6.3 °C 1023.4 hPa Calm     94% 0.0 mm 0 W/m2
01:17 7.1 °C 6.2 °C 1023.7 hPa Calm     94% 0.0 mm 0 W/m2
01:22 6.9 °C 6 °C 1023.4 hPa SE 1.4 km/h 3.2 km/h 94% 0.0 mm 0 W/m2
01:27 6.8 °C 5.9 °C 1023.4 hPa Calm     94% 0.0 mm 0 W/m2
01:32 6.7 °C 5.8 °C 1023.7 hPa Calm   3.2 km/h 94% 0.0 mm 0 W/m2
01:37 6.6 °C 5.7 °C 1023.4 hPa Calm   3.2 km/h 94% 0.0 mm 0 W/m2
01:42 6.3 °C 5.4 °C 1023.7 hPa Calm   3.2 km/h 94% 0.0 mm 0 W/m2
01:47 6.2 °C 5.3 °C 1023.7 hPa Calm     94% 0.0 mm 0 W/m2
01:52 6 °C 5.1 °C 1023.4 hPa Calm   3.2 km/h 94% 0.0 mm 0 W/m2
01:57 5.8 °C 4.9 °C 1023.4 hPa Calm     94% 0.0 mm 0 W/m2
02:02 5.7 °C 4.8 °C 1023.4 hPa Calm     94% 0.0 mm 0 W/m2
02:07 5.6 °C 4.9 °C 1023.4 hPa Calm     95% 0.0 mm 0 W/m2
02:12 5.4 °C 4.7 °C 1023.7 hPa Calm     95% 0.0 mm 0 W/m2
02:17 5.3 °C 4.6 °C 1023.7 hPa SE 1.4 km/h 1.6 km/h 95% 0.0 mm 0 W/m2
02:22 5.2 °C 4.5 °C 1023.4 hPa Calm     95% 0.0 mm 0 W/m2
02:27 5.1 °C 4.4 °C 1023.7 hPa Calm     95% 0.0 mm 0 W/m2
02:32 5 °C 4.3 °C 1023.7 hPa Calm     95% 0.0 mm 0 W/m2
02:37 4.8 °C 4.1 °C 1023.7 hPa Calm     95% 0.0 mm 0 W/m2
02:42 4.7 °C 4 °C 1023.7 hPa Calm     95% 0.0 mm 0 W/m2
02:47 4.6 °C 3.9 °C 1023.7 hPa Calm     95% 0.0 mm 0 W/m2
02:52 4.6 °C 3.9 °C 1023.7 hPa Calm     95% 0.0 mm 0 W/m2
02:57 4.6 °C 3.9 °C 1023.7 hPa Calm     95% 0.0 mm 0 W/m2
03:02 4.6 °C 4 °C 1023.7 hPa Calm   3.2 km/h 96% 0.0 mm 0 W/m2
03:07 4.5 °C 3.9 °C 1023.7 hPa Calm     96% 0.0 mm 0 W/m2
03:12 4.4 °C 3.7 °C 1023.7 hPa Calm   3.2 km/h 95% 0.0 mm 0 W/m2
03:17 4.3 °C 3.6 °C 1023.7 hPa Calm     95% 0.0 mm 0 W/m2
03:22 4.2 °C 3.5 °C 1023.7 hPa Calm     95% 0.0 mm 0 W/m2
03:27 4.1 °C 3.5 °C 1023.7 hPa Calm     96% 0.0 mm 0 W/m2
03:32 3.9 °C 3.2 °C 1023.4 hPa Calm   1.6 km/h 95% 0.0 mm 0 W/m2
03:37 3.8 °C 3.2 °C 1023.4 hPa Calm     96% 0.0 mm 0 W/m2
03:42 3.8 °C 3.2 °C 1023.4 hPa Calm     96% 0.0 mm 0 W/m2
03:48 3.8 °C 3.2 °C 1023.4 hPa Calm     96% 0.0 mm 0 W/m2
03:53 3.8 °C 3.2 °C 1023.4 hPa Calm   1.6 km/h 96% 0.0 mm 0 W/m2
03:58 3.7 °C 3.1 °C 1023.7 hPa Calm     96% 0.0 mm 0 W/m2
04:03 3.7 °C 3.1 °C 1023.7 hPa Calm     96% 0.0 mm 0 W/m2
04:08 3.7 °C 3.1 °C 1023.7 hPa Calm     96% 0.0 mm 0 W/m2
04:13 3.8 °C 3.2 °C 1023.4 hPa Calm     96% 0.0 mm 0 W/m2
04:18 4 °C 3.4 °C 1023.4 hPa Calm     96% 0.0 mm 0 W/m2
04:23 4.1 °C 3.7 °C 1023.7 hPa Calm     97% 0.0 mm 0 W/m2
04:28 4.1 °C 3.7 °C 1023.4 hPa Calm     97% 0.0 mm 0 W/m2
04:33 4.2 °C 3.8 °C 1023.4 hPa Calm     97% 0.0 mm 0 W/m2
04:38 4.3 °C 3.9 °C 1023.4 hPa SE 1.4 km/h 3.2 km/h 97% 0.0 mm 0 W/m2
04:43 4.5 °C 4.1 °C 1023.4 hPa SE 1.4 km/h 3.2 km/h 97% 0.0 mm 0 W/m2
04:48 4.5 °C 4.1 °C 1023.4 hPa Calm     97% 0.0 mm 0 W/m2
04:53 4.4 °C 4 °C 1023.4 hPa Calm   1.6 km/h 97% 0.0 mm 0 W/m2
04:58 4.4 °C 4 °C 1023.4 hPa Calm     97% 0.0 mm 0 W/m2
05:03 4.4 °C 4 °C 1023.4 hPa Calm     97% 0.0 mm 0 W/m2
05:08 4.4 °C 4 °C 1023.4 hPa Calm     97% 0.0 mm 0 W/m2
05:13 4.4 °C 4 °C 1023.4 hPa Calm     97% 0.0 mm 0 W/m2
05:18 4.4 °C 4 °C 1023.4 hPa Calm     97% 0.0 mm 0 W/m2
05:23 4.3 °C 3.9 °C 1023.4 hPa Calm     97% 0.0 mm 0 W/m2
Juneau County Weather
Compliments of Weather Underground - 2 mb